• Join FlightAware (Why Join?)
  • Login
  • US Flag 
12:55AM EDT


 

Airport Tracker/Info


-or-


 

Live Flight TrackerFlight Track Log ✈ LIA509 ✈ 19-Aug-2014 ✈ TUPJ / EIS - TNCM / SXM

Flight Track Log - Related Links

Times and Time Zones

All times are in EDT time to prevent confusion due to time zone crossing. See the LIA509 flight status page for this flight to view local times or setup timezone preferences in your user account.

Time Position Orientation Groundspeed Altitude Reporting Facility
EDT Latitude Longitude Course Direction KTS MPH feet Rate Location/Type
09:04PM 18.6058 -64.2080 55° Northeast  Level FlightAware Approximate
09:05PM 18.6333 -64.1548 90° East  Level FlightAware Approximate
09:06PM 18.6647 -64.1029 55° Northeast  Level FlightAware Approximate
09:07PM 18.6354 -64.0513 124° Southeast  Level FlightAware Approximate
09:08PM 18.6022 -63.9997 124° Southeast  Level FlightAware Approximate
09:09PM 18.5690 -63.9481 124° Southeast  Level FlightAware Approximate
09:10PM 18.5358 -63.8965 124° Southeast  Level FlightAware Approximate
09:11PM 18.5023 -63.8451 125° Southeast  Level FlightAware Approximate
09:12PM 18.4649 -63.7972 123° Southeast  Level FlightAware Approximate
09:13PM 18.4324 -63.7452 123° Southeast  Level FlightAware Approximate
09:14PM 18.3999 -63.6931 123° Southeast  Level FlightAware Approximate
09:15PM 18.3753 -63.6389 127° Southeast  Level FlightAware Approximate
09:16PM 18.3393 -63.5895 127° Southeast  Level FlightAware Approximate
09:17PM 18.3034 -63.5400 127° Southeast  Level FlightAware Approximate
09:18PM 18.2674 -63.4906 127° Southeast  Level FlightAware Approximate
09:19PM 18.2346 -63.4390 120° Southeast  Level FlightAware Approximate
09:20PM 18.2048 -63.3852 120° Southeast  Level FlightAware Approximate
09:21PM 18.1749 -63.3315 120° Southeast  Level FlightAware Approximate
09:22PM 18.1402 -63.2813 128° Southeast  Level FlightAware Approximate
09:23PM 18.1054 -63.2311 122° Southeast  Level FlightAware Approximate
09:24PM 18.0738 -63.1786 122° Southeast  Level FlightAware Approximate
09:25PM 18.0428 -63.1261 136° Southeast  Level FlightAware Approximate
09:26PM 18.0410 -63.1089 90° East  Level Estimated
09:27PM 18.0410 -63.1089 90° East  Level Estimated
09:28PM 18.0410 -63.1089 90° East  Level Estimated
09:29PM 18.0410 -63.1089 90° East  Level Estimated
09:30PM 18.0410 -63.1089 90° East  Level Estimated
09:31PM 18.0410 -63.1089 90° East  Level Estimated
09:32PM 18.0410 -63.1089 90° East  Level Estimated